Time;durP1;ratioP1;P1;durP2;ratioP2;P2;SDS_P1;SDS_P2;PMS_P1;PMS_P2;Temp;Humidity;BMP_temperature;BMP_pressure;BME280_temperature;BME280_humidity;BME280_pressure;Samples;Min_cycle;Max_cycle;Signal;HPM_P1;HPM_P2
2022/05/28 00:00:32;;;;;;;;;6.00;5.00;;;;;17.01;51.43;101672.22;5022664;28;45745;-80
2022/05/28 00:02:57;;;;;;;;;4.75;4.75;;;;;17.00;51.55;101673.22;5021997;28;45659;-80
2022/05/28 00:05:22;;;;;;;;;8.25;5.00;;;;;16.94;52.00;101660.47;5024740;28;46070;-80
2022/05/28 00:07:48;;;;;;;;;6.00;5.00;;;;;16.79;52.02;101636.06;5021870;28;45652;-80
2022/05/28 00:10:17;;;;;;;;;6.00;5.00;;;;;16.96;52.06;101669.13;5018034;28;45957;-80
2022/05/28 00:12:43;;;;;;;;;5.25;4.75;;;;;16.89;52.48;101653.88;5032372;28;45722;-79
2022/05/28 00:15:09;;;;;;;;;6.00;5.50;;;;;16.96;51.69;101665.63;5025195;28;46613;-80
2022/05/28 00:17:36;;;;;;;;;6.50;6.00;;;;;16.95;52.03;101656.84;5031310;28;46261;-79
2022/05/28 00:20:02;;;;;;;;;6.00;5.00;;;;;16.85;52.06;101641.81;5030765;28;46149;-80
2022/05/28 00:22:28;;;;;;;;;6.25;5.00;;;;;16.85;51.74;101644.47;5051580;28;45664;-81
2022/05/28 00:24:55;;;;;;;;;7.25;5.75;;;;;16.79;52.20;101637.84;5051434;28;45664;-80
2022/05/28 00:27:20;;;;;;;;;6.00;5.75;;;;;16.79;52.16;101649.28;5051286;28;46412;-80
2022/05/28 00:29:45;;;;;;;;;6.00;5.75;;;;;16.86;51.76;101654.94;5051191;28;45646;-79
2022/05/28 00:32:11;;;;;;;;;6.50;5.25;;;;;16.85;52.03;101653.25;5051657;28;45717;-80
2022/05/28 00:34:36;;;;;;;;;5.25;4.50;;;;;16.79;51.72;101645.81;5051317;28;45961;-80
2022/05/28 00:37:03;;;;;;;;;6.00;6.00;;;;;16.75;51.48;101641.72;5050961;28;45649;-79
2022/05/28 00:39:29;;;;;;;;;6.00;5.00;;;;;16.72;52.22;101640.19;5050893;28;45842;-79
2022/05/28 00:41:55;;;;;;;;;4.75;4.00;;;;;16.57;52.24;101625.47;5051431;28;45847;-80
2022/05/28 00:44:21;;;;;;;;;5.25;5.00;;;;;16.68;51.88;101641.38;5050999;28;46409;-80
2022/05/28 00:46:48;;;;;;;;;6.00;5.00;;;;;16.62;52.10;101644.53;5032756;28;48509;-79
2022/05/28 00:49:23;;;;;;;;;5.00;5.00;;;;;16.50;52.37;101623.47;5050903;28;45659;-80
2022/05/28 00:51:52;;;;;;;;;5.75;5.00;;;;;16.62;52.25;101638.41;5051361;28;45666;-80
2022/05/28 00:54:17;;;;;;;;;5.75;5.00;;;;;16.48;52.45;101620.94;5033250;28;45809;-79
2022/05/28 00:56:43;;;;;;;;;5.25;5.25;;;;;16.55;52.22;101634.53;5051108;28;45918;-80
2022/05/28 00:59:09;;;;;;;;;5.75;4.00;;;;;16.46;52.47;101622.88;5050620;28;45864;-79
2022/05/28 01:01:37;;;;;;;;;8.00;5.75;;;;;16.54;52.42;101635.47;5051506;28;46147;-80
2022/05/28 01:04:11;;;;;;;;;7.00;6.00;;;;;16.47;52.55;101635.13;5050713;28;45723;-80
2022/05/28 01:06:52;;;;;;;;;6.25;6.00;;;;;16.47;52.78;101642.22;5050690;28;46669;-80
2022/05/28 01:09:42;;;;;;;;;7.00;5.50;;;;;16.37;52.91;101628.88;5050582;28;46226;-80
2022/05/28 01:12:29;;;;;;;;;6.50;5.00;;;;;16.37;52.73;101635.00;5043772;28;45775;-80
2022/05/28 01:15:18;;;;;;;;;8.50;6.00;;;;;16.30;53.22;101630.34;5030413;28;46972;-79
2022/05/28 01:17:59;;;;;;;;;7.00;6.50;;;;;16.23;53.24;101619.41;5030033;28;46100;-80
2022/05/28 01:20:37;;;;;;;;;6.00;5.50;;;;;16.19;53.76;101628.53;5030150;28;45801;-80
2022/05/28 01:23:28;;;;;;;;;5.25;5.25;;;;;16.24;53.18;101622.88;5030094;28;45969;-80
2022/05/28 01:26:21;;;;;;;;;6.00;6.00;;;;;16.21;53.55;101623.09;5030291;28;46648;-79
2022/05/28 01:28:52;;;;;;;;;8.50;6.00;;;;;16.13;53.70;101617.59;5020048;28;45685;-79
2022/05/28 01:31:20;;;;;;;;;5.25;5.25;;;;;16.09;53.85;101609.03;5011892;28;45659;-80
2022/05/28 01:33:47;;;;;;;;;7.75;6.00;;;;;16.12;53.85;101618.56;5029324;28;45670;-80
2022/05/28 01:36:16;;;;;;;;;9.00;6.00;;;;;15.97;54.08;101596.81;5029912;28;46737;-81
2022/05/28 01:38:43;;;;;;;;;7.75;6.25;;;;;16.02;54.07;101612.31;5023409;28;45633;-80
2022/05/28 01:41:11;;;;;;;;;7.75;7.75;;;;;16.05;53.95;101615.53;5033781;28;46043;-79
2022/05/28 01:43:40;;;;;;;;;9.75;8.00;;;;;15.97;54.10;101607.38;5034382;28;45799;-80
2022/05/28 01:46:06;;;;;;;;;8.50;6.75;;;;;15.99;54.12;101610.72;5028489;28;45690;-80
2022/05/28 01:48:33;;;;;;;;;4.00;3.25;;;;;15.97;54.58;101622.41;4995577;28;47219;-80
2022/05/28 01:51:01;;;;;;;;;7.25;6.00;;;;;15.90;54.58;101620.22;5033005;28;45800;-80
2022/05/28 01:56:14;;;;;;;;;7.00;5.00;;;;;15.93;54.85;101613.84;5025751;28;46258;-79
2022/05/28 01:58:39;;;;;;;;;6.75;6.00;;;;;15.92;54.97;101610.34;5033427;28;45650;-80
2022/05/28 02:01:07;;;;;;;;;6.25;6.25;;;;;15.89;54.98;101605.31;5025386;28;45559;-80
2022/05/28 02:03:36;;;;;;;;;6.75;6.00;;;;;15.88;54.89;101608.91;5027381;28;46011;-80
2022/05/28 02:06:02;;;;;;;;;6.75;6.25;;;;;15.86;54.89;101602.09;5023406;28;46809;-80
2022/05/28 02:08:32;;;;;;;;;6.25;6.25;;;;;15.76;55.00;101591.34;5019489;28;46115;-79
2022/05/28 02:11:26;;;;;;;;;6.00;6.00;;;;;15.79;54.89;101596.41;5033642;28;45855;-80
2022/05/28 02:13:56;;;;;;;;;7.00;6.50;;;;;15.83;54.55;101595.22;4949097;28;45789;-80
2022/05/28 02:16:48;;;;;;;;;7.75;6.75;;;;;15.74;54.66;101582.72;4946468;28;46079;-80
2022/05/28 02:19:21;;;;;;;;;8.00;7.00;;;;;15.75;54.74;101587.06;4951836;28;45930;-80
2022/05/28 02:21:55;;;;;;;;;9.00;7.25;;;;;15.71;54.99;101576.84;4952140;28;45697;-79
2022/05/28 02:24:29;;;;;;;;;8.75;6.00;;;;;15.72;54.88;101570.56;4951931;28;45686;-79
2022/05/28 02:27:01;;;;;;;;;5.75;5.00;;;;;15.83;54.88;101589.09;4939582;28;45661;-80
2022/05/28 02:29:27;;;;;;;;;7.50;6.50;;;;;15.71;55.33;101571.56;4951497;28;46057;-80
2022/05/28 02:31:53;;;;;;;;;8.50;7.50;;;;;15.73;55.48;101575.75;4951477;28;45850;-78
2022/05/28 02:34:19;;;;;;;;;6.50;6.50;;;;;15.65;55.51;101567.59;4947350;28;46078;-79
2022/05/28 02:36:45;;;;;;;;;7.00;6.00;;;;;15.70;55.86;101580.44;4951508;28;45788;-78
2022/05/28 02:39:11;;;;;;;;;7.00;6.00;;;;;15.66;56.01;101577.16;4950838;28;46301;-78
2022/05/28 02:41:37;;;;;;;;;5.75;5.00;;;;;15.59;55.83;101573.34;4951760;28;46025;-80
2022/05/28 02:44:03;;;;;;;;;7.25;6.00;;;;;15.65;56.10;101577.31;4951607;28;46093;-80
2022/05/28 02:46:29;;;;;;;;;10.25;6.75;;;;;15.63;55.96;101581.84;4951435;28;47976;-80
2022/05/28 02:48:55;;;;;;;;;8.00;7.50;;;;;15.61;56.30;101565.28;4962049;28;47147;-80
2022/05/28 02:51:22;;;;;;;;;6.75;5.00;;;;;15.56;56.33;101554.22;5011309;28;45721;-80
2022/05/28 02:53:49;;;;;;;;;6.25;5.75;;;;;15.59;56.08;101556.66;5033271;28;46489;-80
2022/05/28 02:56:15;;;;;;;;;7.00;6.00;;;;;15.61;56.18;101565.28;5032144;28;46778;-80
2022/05/28 02:58:41;;;;;;;;;6.50;6.00;;;;;15.60;56.37;101560.97;5032538;28;46055;-80
2022/05/28 03:01:25;;;;;;;;;7.00;6.50;;;;;15.60;56.54;101574.19;5032888;28;45798;-80
2022/05/28 03:03:51;;;;;;;;;8.00;6.50;;;;;15.53;56.69;101568.53;5032813;28;46136;-80
2022/05/28 03:06:16;;;;;;;;;8.00;7.00;;;;;15.45;56.57;101547.09;5032224;28;46889;-80
2022/05/28 03:08:42;;;;;;;;;7.00;6.50;;;;;15.51;56.55;101562.47;5032151;28;45909;-80
2022/05/28 03:11:07;;;;;;;;;6.00;5.75;;;;;15.37;56.94;101550.34;5032591;28;45771;-80
2022/05/28 03:13:33;;;;;;;;;5.00;5.00;;;;;15.37;56.80;101549.50;5032649;28;45686;-78
2022/05/28 03:15:58;;;;;;;;;8.75;5.50;;;;;15.39;56.90;101572.16;5032827;28;46328;-80
2022/05/28 03:18:24;;;;;;;;;8.25;7.00;;;;;15.37;57.15;101568.81;5031612;28;46278;-78
2022/05/28 03:20:49;;;;;;;;;8.25;7.00;;;;;15.35;57.35;101568.06;5032584;28;45769;-81
2022/05/28 03:23:14;;;;;;;;;6.00;6.00;;;;;15.27;57.32;101557.28;5032418;28;45661;-80
2022/05/28 03:25:40;;;;;;;;;7.25;6.00;;;;;15.25;57.80;101553.91;5032427;28;45680;-80
2022/05/28 03:28:05;;;;;;;;;8.50;8.00;;;;;15.25;57.52;101559.16;5031151;28;45727;-81
2022/05/28 03:30:31;;;;;;;;;8.00;6.75;;;;;15.18;57.49;101557.09;5032402;28;45692;-80
2022/05/28 03:32:56;;;;;;;;;6.75;5.75;;;;;15.19;57.58;101564.91;5032456;28;46026;-80
2022/05/28 03:35:22;;;;;;;;;8.25;7.25;;;;;15.13;57.89;101568.00;5032306;28;45684;-81
2022/05/28 03:37:47;;;;;;;;;5.00;5.00;;;;;15.16;57.96;101566.94;5031523;28;46210;-80
2022/05/28 03:40:13;;;;;;;;;6.25;6.25;;;;;15.09;57.94;101567.41;5031927;28;46018;-80
2022/05/28 03:42:38;;;;;;;;;8.50;7.75;;;;;15.05;57.95;101563.31;5032072;28;45853;-80
2022/05/28 03:45:04;;;;;;;;;8.25;7.25;;;;;15.07;58.32;101560.53;5032110;28;45702;-80
2022/05/28 03:47:31;;;;;;;;;6.25;5.00;;;;;14.99;58.16;101553.22;5031509;28;46459;-81
2022/05/28 03:49:57;;;;;;;;;6.75;6.00;;;;;14.99;58.24;101566.41;5031731;28;45894;-81
2022/05/28 03:52:22;;;;;;;;;5.00;4.25;;;;;14.99;58.37;101584.88;5032246;28;45594;-81
2022/05/28 03:54:48;;;;;;;;;8.50;6.75;;;;;14.88;58.53;101576.06;5030874;28;45803;-80
2022/05/28 03:57:21;;;;;;;;;8.25;6.75;;;;;14.75;59.10;101570.00;5031397;28;46374;-80
2022/05/28 03:59:47;;;;;;;;;8.00;6.50;;;;;14.82;59.01;101580.00;5031868;28;45692;-80
2022/05/28 04:02:13;;;;;;;;;8.50;6.50;;;;;14.72;59.10;101572.88;5032176;28;46114;-80
2022/05/28 04:04:39;;;;;;;;;10.25;7.00;;;;;14.77;59.36;101590.03;5031847;28;45752;-80
2022/05/28 04:07:05;;;;;;;;;8.75;7.75;;;;;14.72;59.46;101589.53;5026285;28;47305;-80
2022/05/28 04:09:30;;;;;;;;;7.75;7.50;;;;;14.69;59.38;101597.66;5030272;28;46253;-79
2022/05/28 04:11:56;;;;;;;;;6.75;6.50;;;;;14.60;59.71;101578.09;5044442;28;45706;-80
2022/05/28 04:14:22;;;;;;;;;6.50;6.00;;;;;14.48;59.44;101571.03;5040527;28;46704;-80
2022/05/28 04:16:47;;;;;;;;;6.25;6.00;;;;;14.56;59.75;101596.88;5038732;28;45780;-80
2022/05/28 04:19:12;;;;;;;;;6.25;5.50;;;;;14.50;60.11;101595.53;5031262;28;46118;-80
2022/05/28 04:21:38;;;;;;;;;12.00;6.75;;;;;14.45;60.36;101588.91;5051038;28;45932;-80
2022/05/28 04:24:05;;;;;;;;;6.75;5.50;;;;;14.47;60.11;101593.09;5051628;28;45746;-80
2022/05/28 04:26:30;;;;;;;;;9.50;9.00;;;;;14.44;60.20;101595.09;5050809;28;46514;-80
2022/05/28 04:28:56;;;;;;;;;11.00;9.50;;;;;14.50;60.34;101602.59;5051055;28;45677;-80
2022/05/28 04:31:21;;;;;;;;;5.25;5.25;;;;;14.51;60.34;101605.13;5051317;28;45916;-79
2022/05/28 04:33:47;;;;;;;;;8.50;6.75;;;;;14.46;60.53;101598.50;5051484;28;46448;-80
2022/05/28 04:36:12;;;;;;;;;10.25;8.25;;;;;14.48;60.57;101599.22;5018973;28;47106;-79
2022/05/28 04:38:38;;;;;;;;;8.00;7.50;;;;;14.49;60.59;101607.00;5050259;28;46181;-80
2022/05/28 04:41:03;;;;;;;;;9.00;8.00;;;;;14.45;60.36;101600.28;5047537;28;45727;-79
2022/05/28 04:43:29;;;;;;;;;11.00;7.50;;;;;14.43;60.72;101594.25;5040349;28;46786;-80
2022/05/28 04:45:54;;;;;;;;;9.25;7.50;;;;;14.47;60.66;101608.06;5050084;28;45688;-80
2022/05/28 04:48:19;;;;;;;;;9.00;8.00;;;;;14.35;60.93;101593.09;5030833;28;45740;-80
2022/05/28 04:50:45;;;;;;;;;7.00;6.00;;;;;14.37;60.98;101594.69;5047982;28;45807;-80
2022/05/28 04:53:10;;;;;;;;;10.00;6.00;;;;;14.40;60.36;101586.59;5050927;28;46689;-80
2022/05/28 04:55:37;;;;;;;;;6.50;6.00;;;;;14.53;60.49;101605.00;5050882;28;45744;-80
2022/05/28 04:58:03;;;;;;;;;11.75;7.00;;;;;14.47;60.46;101598.34;5050326;28;45886;-80
2022/05/28 05:00:29;;;;;;;;;11.00;8.25;;;;;14.48;60.74;101600.06;5050616;28;46147;-79
2022/05/28 05:02:54;;;;;;;;;4.00;3.00;;;;;14.58;60.92;101614.25;5046872;28;46497;-79
2022/05/28 05:05:20;;;;;;;;;12.00;8.50;;;;;14.55;60.51;101611.84;5046894;28;45628;-80
2022/05/28 05:07:45;;;;;;;;;9.00;8.50;;;;;14.49;61.00;101604.38;5050165;28;46086;-81
2022/05/28 05:10:11;;;;;;;;;9.00;6.75;;;;;14.55;60.69;101621.56;5040492;28;45773;-80
2022/05/28 05:12:37;;;;;;;;;9.25;7.00;;;;;14.51;60.54;101613.03;5024873;28;47301;-79
2022/05/28 05:15:03;;;;;;;;;11.00;9.00;;;;;14.44;60.56;101609.13;5032251;28;46719;-80
2022/05/28 05:17:29;;;;;;;;;10.00;8.50;;;;;14.49;60.85;101612.28;5038507;28;45691;-80
2022/05/28 05:19:54;;;;;;;;;10.00;6.75;;;;;14.51;60.89;101612.19;5027949;28;45764;-79
2022/05/28 05:22:21;;;;;;;;;12.75;9.75;;;;;14.52;60.54;101621.78;5045548;28;46184;-79
2022/05/28 05:24:46;;;;;;;;;6.00;5.25;;;;;14.40;60.96;101599.78;5050517;28;46390;-79
2022/05/28 05:27:12;;;;;;;;;11.00;8.75;;;;;14.45;61.23;101595.00;5050607;28;45698;-80
2022/05/28 05:29:41;;;;;;;;;10.50;8.75;;;;;14.55;61.09;101616.28;5050383;28;46088;-79
2022/05/28 05:32:07;;;;;;;;;8.75;8.00;;;;;14.53;60.97;101608.47;5050894;28;46355;-80
2022/05/28 05:34:32;;;;;;;;;8.25;8.25;;;;;14.44;60.59;101589.84;5046571;28;46131;-80
2022/05/28 05:36:58;;;;;;;;;8.50;7.00;;;;;14.57;60.84;101607.31;5035621;28;45787;-79
2022/05/28 05:39:23;;;;;;;;;11.00;10.00;;;;;14.49;60.66;101582.44;5033377;28;46086;-79
2022/05/28 05:41:49;;;;;;;;;10.25;9.25;;;;;14.62;60.57;101599.06;5050570;28;45697;-79
2022/05/28 05:44:14;;;;;;;;;10.75;9.75;;;;;14.70;60.53;101604.63;5033018;28;46141;-79
2022/05/28 05:46:41;;;;;;;;;11.75;8.25;;;;;14.73;60.28;101606.22;5039316;28;45732;-81
2022/05/28 05:49:09;;;;;;;;;12.75;9.25;;;;;14.72;60.55;101589.53;5044744;28;45670;-80
2022/05/28 05:51:40;;;;;;;;;9.25;9.00;;;;;14.87;60.20;101609.53;5042252;28;45978;-80
2022/05/28 05:54:06;;;;;;;;;13.00;10.00;;;;;14.82;60.34;101589.72;5049778;28;46326;-81
2022/05/28 05:56:31;;;;;;;;;12.00;9.25;;;;;14.81;59.82;101583.59;5041529;28;45810;-80
2022/05/28 05:58:57;;;;;;;;;10.75;7.50;;;;;14.91;60.40;101595.16;5046833;28;45727;-80
2022/05/28 06:01:23;;;;;;;;;11.50;10.75;;;;;14.90;60.00;101582.09;5038769;28;45695;-80
2022/05/28 06:03:50;;;;;;;;;11.75;10.75;;;;;15.05;60.25;101605.53;5049678;28;46095;-80
2022/05/28 06:06:17;;;;;;;;;10.50;10.00;;;;;14.95;59.93;101587.88;5049818;28;45812;-80
2022/05/28 06:08:43;;;;;;;;;10.75;8.50;;;;;15.09;60.01;101598.22;5050063;28;45893;-79
2022/05/28 06:11:09;;;;;;;;;11.75;10.25;;;;;15.12;59.79;101604.13;5038202;28;46031;-79
2022/05/28 06:13:35;;;;;;;;;12.25;10.00;;;;;15.05;59.87;101592.34;5025255;28;48173;-80
2022/05/28 06:16:02;;;;;;;;;11.00;8.50;;;;;15.19;59.56;101614.22;5035375;28;45766;-80
2022/05/28 06:18:29;;;;;;;;;11.00;10.25;;;;;15.20;59.90;101610.63;5048044;28;45870;-79
2022/05/28 06:20:55;;;;;;;;;11.25;8.25;;;;;15.18;59.66;101601.97;5041743;28;45618;-80
2022/05/28 06:23:20;;;;;;;;;13.50;10.50;;;;;15.22;59.72;101614.84;5050212;28;46045;-80
2022/05/28 06:25:46;;;;;;;;;10.50;10.25;;;;;15.12;59.69;101590.06;5053091;28;45673;-80
2022/05/28 06:28:11;;;;;;;;;9.50;8.50;;;;;15.18;59.37;101592.25;5053225;28;46023;-80
2022/05/28 06:30:37;;;;;;;;;11.75;9.50;;;;;15.28;59.40;101605.59;5042391;28;45619;-80
2022/05/28 06:33:03;;;;;;;;;7.75;7.00;;;;;15.31;59.58;101611.53;5042771;28;46100;-80
2022/05/28 06:35:32;;;;;;;;;10.00;9.25;;;;;15.31;59.32;101611.53;5033327;28;45764;-79
2022/05/28 06:37:57;;;;;;;;;11.50;9.00;;;;;15.29;59.23;101596.75;5051032;28;45716;-79
2022/05/28 06:40:23;;;;;;;;;10.25;8.00;;;;;15.36;59.63;101613.81;5046265;28;45739;-80
2022/05/28 06:42:49;;;;;;;;;8.25;8.00;;;;;15.36;59.39;101604.09;5041361;28;45705;-78
2022/05/28 06:45:15;;;;;;;;;10.50;9.25;;;;;15.36;58.96;101605.91;5022550;28;45713;-79
2022/05/28 06:47:45;;;;;;;;;11.75;9.00;;;;;15.44;58.85;101608.78;5053021;28;46213;-80
2022/05/28 06:52:57;;;;;;;;;9.00;7.50;;;;;15.46;59.05;101612.16;5026202;28;45681;-79
2022/05/28 06:55:23;;;;;;;;;10.25;9.00;;;;;15.53;59.21;101616.06;5037799;28;46147;-80
2022/05/28 06:57:49;;;;;;;;;12.25;9.75;;;;;15.55;59.31;101624.69;5048038;28;46991;-80
2022/05/28 07:00:15;;;;;;;;;12.75;10.75;;;;;15.46;58.87;101591.88;5031636;28;47855;-80
2022/05/28 07:02:40;;;;;;;;;13.00;11.75;;;;;15.54;59.10;101604.53;5052440;28;46078;-79
2022/05/28 07:05:06;;;;;;;;;13.75;10.25;;;;;15.47;59.37;101590.94;5043182;28;45728;-80
2022/05/28 07:07:32;;;;;;;;;13.75;10.75;;;;;15.53;59.27;101598.41;5052286;28;45825;-80
2022/05/28 07:09:57;;;;;;;;;17.25;13.00;;;;;15.52;59.62;101596.72;5050760;28;46637;-80
2022/05/28 07:12:23;;;;;;;;;13.50;11.00;;;;;15.61;59.88;101603.09;5052154;28;46236;-80
2022/05/28 07:14:48;;;;;;;;;10.50;10.25;;;;;15.65;59.60;101609.84;5041079;28;45674;-80
2022/05/28 07:17:13;;;;;;;;;13.25;12.50;;;;;15.62;59.50;101602.16;5048295;28;46077;-80
2022/05/28 07:19:41;;;;;;;;;13.00;13.00;;;;;15.67;59.49;101597.34;5038481;28;45713;-79
2022/05/28 07:22:07;;;;;;;;;14.25;11.00;;;;;15.63;59.96;101593.28;5039436;28;45657;-80
2022/05/28 07:24:33;;;;;;;;;12.75;11.75;;;;;15.69;59.65;101602.53;5039325;28;46084;-81
2022/05/28 07:26:58;;;;;;;;;11.25;11.25;;;;;15.68;59.72;101599.03;5049425;28;45881;-80
2022/05/28 07:29:24;;;;;;;;;13.00;11.50;;;;;15.65;59.52;101580.78;5048737;28;48682;-80
2022/05/28 07:31:49;;;;;;;;;12.50;11.25;;;;;15.73;59.30;101591.59;5044614;28;45878;-80
2022/05/28 07:34:22;;;;;;;;;11.75;10.00;;;;;15.67;59.55;101565.66;5041114;28;45774;-79
2022/05/28 07:36:48;;;;;;;;;14.25;12.00;;;;;15.79;59.29;101577.06;5044411;28;46646;-80
2022/05/28 07:39:14;;;;;;;;;12.50;12.25;;;;;15.87;59.53;101580.78;5034174;28;47353;-80
2022/05/28 07:41:40;;;;;;;;;12.00;10.00;;;;;15.86;59.14;101579.13;5035766;28;46656;-79
2022/05/28 07:44:06;;;;;;;;;14.25;11.00;;;;;15.85;59.79;101573.97;5046877;28;45553;-80
2022/05/28 07:46:33;;;;;;;;;14.00;10.00;;;;;15.86;59.40;101575.66;5037626;28;45627;-80
2022/05/28 07:49:00;;;;;;;;;12.00;10.25;;;;;15.92;59.04;101583.91;5041014;28;46239;-80
2022/05/28 07:51:27;;;;;;;;;14.25;11.50;;;;;15.94;59.05;101578.53;5050579;28;45646;-80
2022/05/28 07:53:53;;;;;;;;;11.00;10.00;;;;;15.97;58.80;101580.09;5022371;28;46200;-80
2022/05/28 07:56:19;;;;;;;;;14.25;10.00;;;;;15.98;58.81;101573.84;5039961;28;45687;-80
2022/05/28 07:58:46;;;;;;;;;14.50;10.25;;;;;16.09;58.54;101581.75;5039108;28;46608;-80
2022/05/28 08:01:26;;;;;;;;;12.00;9.75;;;;;16.05;58.50;101565.31;5047653;28;46259;-79
2022/05/28 08:03:52;;;;;;;;;10.75;8.25;;;;;16.09;58.63;101566.75;5037856;28;46153;-79
2022/05/28 08:06:19;;;;;;;;;10.50;8.00;;;;;16.15;57.95;101570.72;5051339;28;45787;-78
2022/05/28 08:08:45;;;;;;;;;10.50;8.25;;;;;16.19;58.24;101573.00;5050980;28;46527;-79
2022/05/28 08:11:11;;;;;;;;;14.25;13.25;;;;;16.22;58.01;101572.75;5031264;28;48129;-79
2022/05/28 08:13:37;;;;;;;;;9.75;9.50;;;;;16.19;57.63;101566.88;5050214;28;45625;-79
2022/05/28 08:16:03;;;;;;;;;12.00;10.25;;;;;16.24;57.93;101564.72;5037848;28;45870;-80
2022/05/28 08:18:28;;;;;;;;;15.75;10.00;;;;;16.29;57.70;101573.13;5045756;28;47050;-78
2022/05/28 08:23:42;;;;;;;;;8.50;6.75;;;;;16.41;57.50;101573.94;5052047;28;46070;-79
2022/05/28 08:26:08;;;;;;;;;14.25;11.00;;;;;16.39;57.27;101568.78;5049389;28;45951;-80
2022/05/28 08:28:39;;;;;;;;;10.25;8.50;;;;;16.43;57.13;101570.19;5033565;28;45734;-80
2022/05/28 08:31:05;;;;;;;;;14.00;9.75;;;;;16.53;56.73;101570.28;5052649;28;46155;-79
2022/05/28 08:33:32;;;;;;;;;9.75;9.00;;;;;16.57;56.61;101575.22;5047902;28;45803;-79
2022/05/28 08:35:59;;;;;;;;;11.00;10.00;;;;;16.65;56.44;101569.34;5050903;28;46219;-79
2022/05/28 08:38:25;;;;;;;;;13.25;9.75;;;;;16.74;56.86;101571.22;5041486;28;45760;-80
2022/05/28 08:41:05;;;;;;;;;14.00;10.50;;;;;16.81;56.91;101571.56;5042947;28;46447;-79
2022/05/28 08:43:34;;;;;;;;;16.75;11.75;;;;;16.88;56.63;101578.06;5041962;28;45775;-79
2022/05/28 08:46:00;;;;;;;;;11.25;9.50;;;;;16.90;56.20;101565.53;5050177;28;45626;-79
2022/05/28 08:48:36;;;;;;;;;14.00;12.25;;;;;16.95;56.28;101566.00;5040006;28;46395;-79
2022/05/28 08:51:08;;;;;;;;;10.00;8.50;;;;;17.02;55.93;101567.16;5044504;28;45850;-80
2022/05/28 08:53:45;;;;;;;;;9.50;8.75;;;;;16.92;55.75;101550.34;5047378;28;45647;-79
2022/05/28 08:56:16;;;;;;;;;10.50;9.25;;;;;17.01;55.67;101561.03;5027988;28;45694;-79
2022/05/28 08:58:45;;;;;;;;;11.00;9.75;;;;;16.97;55.42;101556.97;5037945;28;45789;-79
2022/05/28 09:01:16;;;;;;;;;11.50;9.25;;;;;17.12;55.65;101570.72;5043434;28;45964;-80
2022/05/28 09:03:59;;;;;;;;;17.25;13.00;;;;;17.18;55.26;101559.63;5039268;28;45662;-79
2022/05/28 09:06:33;;;;;;;;;9.25;9.00;;;;;17.14;54.78;101540.50;5048088;28;45719;-80
2022/05/28 09:08:59;;;;;;;;;9.75;9.00;;;;;17.29;54.96;101556.91;5049066;28;46633;-81
2022/05/28 09:11:35;;;;;;;;;10.25;9.00;;;;;17.36;54.43;101555.44;5049293;28;47233;-80
2022/05/28 09:14:22;;;;;;;;;10.50;8.75;;;;;17.40;54.05;101554.22;5050875;28;45749;-80
2022/05/28 09:16:51;;;;;;;;;12.75;10.25;;;;;17.37;54.50;101540.38;5051310;28;46019;-79
2022/05/28 09:19:40;;;;;;;;;11.00;9.00;;;;;17.53;54.10;101546.91;5050732;28;46574;-80
2022/05/28 09:22:05;;;;;;;;;9.50;8.50;;;;;17.57;53.88;101553.63;5043279;28;46074;-80
2022/05/28 09:24:33;;;;;;;;;10.00;10.00;;;;;17.58;53.54;101541.22;5039225;28;45974;-79
2022/05/28 09:27:18;;;;;;;;;9.25;8.50;;;;;17.66;53.19;101540.56;5035926;28;45687;-80
2022/05/28 09:30:02;;;;;;;;;12.50;11.00;;;;;17.68;53.16;101544.78;5048685;28;45677;-80
2022/05/28 09:32:34;;;;;;;;;10.75;10.00;;;;;17.68;53.14;101533.34;5036175;28;45871;-80
2022/05/28 09:35:38;;;;;;;;;8.25;7.75;;;;;17.79;52.82;101544.69;5031865;28;45837;-79
2022/05/28 09:38:10;;;;;;;;;10.00;8.00;;;;;17.79;52.96;101536.75;5031447;28;46720;-79
2022/05/28 09:41:00;;;;;;;;;9.75;9.00;;;;;17.86;52.90;101532.59;5041055;28;45679;-79
2022/05/28 09:43:57;;;;;;;;;9.00;9.00;;;;;17.92;52.40;101526.72;5036731;28;48530;-79
2022/05/28 09:46:41;;;;;;;;;9.75;7.25;;;;;17.98;52.20;101528.00;5026008;28;46030;-80
2022/05/28 09:49:17;;;;;;;;;10.75;9.50;;;;;18.01;51.65;101525.94;5049634;28;45927;-81
2022/05/28 09:52:10;;;;;;;;;12.00;8.00;;;;;18.07;52.02;101527.22;5032080;28;47433;-80
2022/05/28 09:54:37;;;;;;;;;9.75;9.25;;;;;18.03;51.52;101502.78;5039210;28;46490;-80
2022/05/28 09:57:11;;;;;;;;;7.50;7.00;;;;;18.13;51.36;101520.53;5050378;28;46042;-79
2022/05/28 09:59:52;;;;;;;;;9.00;8.00;;;;;18.18;51.44;101505.91;5039331;28;45785;-79
2022/05/28 10:02:24;;;;;;;;;11.00;9.00;;;;;18.22;51.07;101491.38;5051290;28;45801;-80
2022/05/28 10:05:11;;;;;;;;;8.25;7.75;;;;;18.28;50.57;101503.25;5041544;28;46506;-79
2022/05/28 10:07:41;;;;;;;;;11.25;7.75;;;;;18.32;50.21;101502.84;5042284;28;45505;-79
2022/05/28 10:10:16;;;;;;;;;8.00;8.00;;;;;18.35;49.92;101497.25;5036671;28;45844;-80
2022/05/28 10:12:41;;;;;;;;;7.50;6.00;;;;;18.30;50.00;101480.91;5052655;28;45915;-80
2022/05/28 10:15:18;;;;;;;;;9.00;7.50;;;;;18.40;49.26;101492.41;5020459;28;47976;-80
2022/05/28 10:18:02;;;;;;;;;6.50;6.50;;;;;18.40;49.38;101488.91;5043190;28;45713;-80
2022/05/28 10:20:28;;;;;;;;;7.00;7.00;;;;;18.39;49.70;101480.09;5038245;28;45802;-80
2022/05/28 10:22:56;;;;;;;;;8.00;7.00;;;;;18.54;48.85;101496.47;5041087;28;45689;-79
2022/05/28 10:25:31;;;;;;;;;9.00;7.50;;;;;18.50;48.39;101476.47;5031536;28;46684;-81
2022/05/28 10:27:57;;;;;;;;;8.25;6.50;;;;;18.64;48.30;101488.50;5030907;28;45778;-80
2022/05/28 10:30:35;;;;;;;;;6.75;5.00;;;;;18.69;47.91;101489.78;5040366;28;45777;-80
2022/05/28 10:33:11;;;;;;;;;6.50;6.00;;;;;18.70;48.16;101480.84;5022492;28;47593;-80
2022/05/28 10:35:38;;;;;;;;;6.00;5.75;;;;;18.76;47.49;101482.09;5044584;28;46228;-80
2022/05/28 10:38:09;;;;;;;;;5.75;5.50;;;;;18.80;47.28;101491.44;5038238;28;45861;-80
2022/05/28 10:40:46;;;;;;;;;7.00;5.25;;;;;18.82;46.76;101469.09;5052082;28;45680;-79
2022/05/28 10:43:20;;;;;;;;;6.50;5.25;;;;;18.73;45.93;101451.34;5034673;28;45685;-80
2022/05/28 10:45:55;;;;;;;;;6.00;5.50;;;;;18.81;46.84;101462.09;5030803;28;46380;-80
2022/05/28 10:48:55;;;;;;;;;5.00;4.00;;;;;18.88;45.59;101467.69;5048775;28;45761;-80
2022/05/28 10:51:48;;;;;;;;;4.50;4.50;;;;;18.87;44.98;101458.06;4989765;28;46021;-80
2022/05/28 10:54:46;;;;;;;;;4.75;4.00;;;;;18.95;43.66;101463.47;4989340;28;46384;-80
2022/05/28 10:57:33;;;;;;;;;5.75;5.00;;;;;18.98;43.64;101462.38;4914691;28;46098;-80
2022/05/28 11:00:12;;;;;;;;;4.50;4.50;;;;;19.01;44.37;101462.91;4915236;28;45886;-79
2022/05/28 11:03:23;;;;;;;;;5.75;5.50;;;;;19.00;43.90;101453.25;4918939;28;45662;-80
2022/05/28 11:06:06;;;;;;;;;5.50;4.25;;;;;19.05;44.57;101452.88;4911832;28;46858;-79
2022/05/28 11:08:55;;;;;;;;;4.00;3.00;;;;;19.08;44.44;101449.91;4914998;28;45962;-81
2022/05/28 11:11:33;;;;;;;;;5.25;4.00;;;;;19.00;44.80;101429.34;4869136;28;1265690;-80
2022/05/28 11:14:33;;;;;;;;;4.75;3.25;;;;;19.14;44.56;101447.53;4912588;28;45576;-79
2022/05/28 11:17:17;;;;;;;;;5.50;4.50;;;;;19.23;43.39;101440.50;4907099;28;46342;-79
2022/05/28 11:20:11;;;;;;;;;4.75;4.00;;;;;19.29;42.54;101435.44;4912857;28;45666;-81
2022/05/28 11:22:54;;;;;;;;;4.00;3.75;;;;;19.33;42.56;101448.41;4915241;28;45789;-79
2022/05/28 11:25:38;;;;;;;;;3.25;2.00;;;;;19.25;42.01;101427.91;4900576;28;45668;-80
2022/05/28 11:28:24;;;;;;;;;5.00;4.00;;;;;19.38;42.41;101431.06;4938572;28;45679;-80
2022/05/28 11:30:56;;;;;;;;;3.75;3.75;;;;;19.40;42.20;101442.41;4951032;28;46458;-80
2022/05/28 11:33:25;;;;;;;;;5.00;4.00;;;;;19.45;41.42;101428.69;5010498;28;45728;-80
2022/05/28 11:36:08;;;;;;;;;4.00;4.00;;;;;19.45;41.40;101428.69;5027845;28;45993;-81
2022/05/28 11:38:53;;;;;;;;;4.00;3.75;;;;;19.45;41.76;101421.56;5030521;28;46967;-79
2022/05/28 11:41:33;;;;;;;;;5.25;4.00;;;;;19.51;41.91;101418.31;5026955;28;48090;-81
2022/05/28 11:44:12;;;;;;;;;4.00;4.00;;;;;19.56;40.08;101432.00;5038400;28;45782;-80